logo
Search for airport 
image banner adimage banner adimage banner ad
image banner ad

FATI - Thabazimbi

Located in Thabazimbi, South Africa

ICAO - FATI, IATA -

Data provided by Airmate  

General information

Coordinates: S24°34'35" E27°25'10"
Elevation is 3198 feet MSL.
 
View others Airports in Limpopo

Operational data

Special qualification required
Current time UTC:
Current local time:
Weather at : - ( 0 km )
METAR: CYIV 140518Z AUTO VRB02KT 6SM -RA OVC033 04/M02 A2972 RMK SLP077
View NOTAMs / SUP AIP / TFR affecting this airport [VIEW]
Communications frequencies: [VIEW]

Runways:

RWY identifierQFULength (ft)Width (ft)SurfaceLDA (ft)
0730°426549ASPH
25210°426549ASPH

Airport contact information

Address: Thabazimbi South Africa

Other aviation service providers

Flight schools

True North Flight Training Centre

True North Flight Training Centre
info@tnah.co.za+27763128979

Satellite view of FATI